Daroca, España

3:16 PM CET en Enero 25, 2015 (GMT +0100)
Calamocha | Change Station
CLOSE
Current Station
Aeropuerto
Location: Calamocha,
Altura: 2917 ft
Estaciones meteorológicas cercanas
Aviso en curso: Wind

Alt 2917 ft 40.93 °N, 1.30 °W | Updated 1 hour ago

Partly Cloudy
Parcialmente nublado
55 ° F
Sensación térmica 55 ° F
N
10
Viento Variable Viento desde NNO
Gusts 23 mph

Hoy
Alta -- | Baja -- ° F
--% Posibilidad de precipitaciones
Ayer
Alta -- | Baja -- ° F
Precip. -- pul
8:23 AM 6:13 PM
Creciente, 32% visible
Presión 30.18 pul
Visibilidad 6.2 Millas
Nubes Baja 4000 ft
Punto de rocío 16 ° F
Humedad 21%
Precipitaciones 0.00 pul
Espesor de la nieve No disponible.
UV 3 de una escala de 12
Polen No disponible.
Calidad del aire No disponible.
Flu Activity No disponible.
METAR LECH 251300Z 34009G20KT 300V050 9999 FEW040 13/M09 Q1022

More Conditions Fewer Conditions

Presión 30.18 pul
Visibilidad 6.2 Millas
Nubes Baja 4000 ft
Punto de rocío 16 ° F
Humedad 21%
Precipitaciones 0.00 pul
Espesor de la nieve No disponible.
UV 3 de una escala de 12
Polen No disponible.
Calidad del aire No disponible.
Flu Activity No disponible.
METAR LECH 251300Z 34009G20KT 300V050 9999 FEW040 13/M09 Q1022

More Conditions Fewer Conditions

10-Day Weather Forecast

Almanac

Astronomía

Jan. 25, 2015 Salida Puesta
Hora real
Crepúsculo civil
Crepúsculo náutico
Crepúsculo astronómico
Luna
Horas de luz
Horas de luz
Tomorrow will be .
, % of the Moon is Illuminated

Extremos de hoy

Máximos del país Bajas del país

Community

WunderPhotos

Upload Photos

1,789,893 ¡fotos cargadas!

WunderBlogs® & News

Nearby

Calidad del aire

  Calidad del aire Índice AQ Contaminante
Not available.

Grosos de nieve

Estación Profundido Altura

Actividad de terremotos

Ciudad Distance Mag. Tiempo y dato
Magnitud mínima muestra es 2,5.

Temperaturas de aguas costeras

Lugar Temperatura

Estaciones meteorológicas cercanas